Time;durP1;ratioP1;P1;durP2;ratioP2;P2;SDS_P1;SDS_P2;PMS_P1;PMS_P2;Temp;Humidity;BMP_temperature;BMP_pressure;BME280_temperature;BME280_humidity;BME280_pressure;Samples;Min_cycle;Max_cycle;Signal;HPM_P1;HPM_P2
2022/12/02 00:00:05;;;;;;;;;35.75;31.00;;;;;8.19;61.26;102267.38;2383009;28;46308;-77
2022/12/02 00:01:16;;;;;;;;;37.75;31.75;;;;;8.20;61.01;102271.72;2383197;28;45304;-77
2022/12/02 00:02:30;;;;;;;;;33.00;29.75;;;;;8.21;61.12;102266.50;2372410;28;47057;-77
2022/12/02 00:03:40;;;;;;;;;36.50;30.00;;;;;8.19;60.94;102263.00;2376543;28;45331;-77
2022/12/02 00:04:58;;;;;;;;;33.50;23.50;;;;;8.20;61.22;102263.88;2382068;28;46510;-77
2022/12/02 00:06:24;;;;;;;;;37.75;30.75;;;;;8.21;61.47;102268.25;2383243;28;45324;-77
2022/12/02 00:07:35;;;;;;;;;39.75;33.25;;;;;8.18;61.19;102263.00;2382950;28;45584;-77
2022/12/02 00:08:45;;;;;;;;;36.00;31.00;;;;;8.17;61.05;102256.88;2382756;28;45299;-77
2022/12/02 00:09:56;;;;;;;;;40.25;31.50;;;;;8.16;61.49;102256.88;2382073;28;45205;-77
2022/12/02 00:11:24;;;;;;;;;37.50;31.25;;;;;8.15;61.46;102256.00;2373264;28;45279;-77
2022/12/02 00:12:35;;;;;;;;;41.25;32.00;;;;;8.15;61.41;102263.00;2370307;28;47399;-77
2022/12/02 00:13:45;;;;;;;;;32.75;31.50;;;;;8.13;61.49;102246.38;2377627;28;44715;-77
2022/12/02 00:14:59;;;;;;;;;39.25;30.75;;;;;8.12;61.74;102256.03;2384662;28;45991;-77
2022/12/02 00:16:21;;;;;;;;;40.00;31.75;;;;;8.09;61.78;102249.03;2374404;28;44706;-77
2022/12/02 00:17:31;;;;;;;;;38.75;32.75;;;;;8.09;61.99;102251.66;2379070;28;46070;-77
2022/12/02 00:18:42;;;;;;;;;37.75;32.25;;;;;8.06;61.72;102251.63;2381637;28;45652;-77
2022/12/02 00:19:52;;;;;;;;;44.25;35.00;;;;;8.06;61.81;102250.75;2376491;28;48018;-77
2022/12/02 00:21:03;;;;;;;;;33.75;28.25;;;;;8.06;61.93;102251.63;2376669;28;45320;-77
2022/12/02 00:22:13;;;;;;;;;43.50;32.25;;;;;8.07;62.05;102248.16;2384463;28;45421;-77
2022/12/02 00:23:23;;;;;;;;;40.75;33.75;;;;;8.06;61.65;102246.41;2374603;28;45370;-78
2022/12/02 00:24:34;;;;;;;;;36.25;32.00;;;;;8.05;62.00;102247.25;2376887;28;45372;-77
2022/12/02 00:25:47;;;;;;;;;49.00;35.00;;;;;8.06;62.25;102250.75;2374638;28;45295;-77
2022/12/02 00:26:57;;;;;;;;;43.50;32.00;;;;;8.03;61.62;102248.13;2375944;28;48048;-77
2022/12/02 00:28:08;;;;;;;;;36.50;32.00;;;;;8.01;62.37;102242.88;2371153;28;45207;-77
2022/12/02 00:29:19;;;;;;;;;34.50;30.25;;;;;8.01;61.88;102253.38;2383560;28;45382;-77
2022/12/02 00:30:29;;;;;;;;;42.50;34.50;;;;;8.02;62.51;102243.78;2381108;28;45595;-77
2022/12/02 00:31:40;;;;;;;;;43.50;33.50;;;;;8.03;62.15;102248.13;2383533;28;45415;-77
2022/12/02 00:32:50;;;;;;;;;42.75;33.50;;;;;8.04;62.46;102239.41;2373233;28;45630;-77
2022/12/02 00:34:01;;;;;;;;;37.75;31.75;;;;;8.05;62.67;102246.41;2373615;28;46225;-77
2022/12/02 00:35:12;;;;;;;;;31.50;27.75;;;;;8.03;62.08;102238.53;2377023;28;45386;-77
2022/12/02 00:36:22;;;;;;;;;43.75;32.50;;;;;8.04;62.48;102240.28;2384228;28;45520;-77
2022/12/02 00:37:33;;;;;;;;;42.50;34.00;;;;;8.05;62.62;102243.78;2384573;28;45417;-77
2022/12/02 00:38:43;;;;;;;;;36.00;30.50;;;;;8.07;62.72;102242.91;2383904;28;46240;-77
2022/12/02 00:39:53;;;;;;;;;35.25;30.25;;;;;8.07;62.80;102240.28;2383866;28;45228;-77
2022/12/02 00:41:04;;;;;;;;;38.50;33.00;;;;;8.08;62.56;102238.53;2374418;28;46530;-77
2022/12/02 00:42:14;;;;;;;;;39.00;34.50;;;;;8.07;62.39;102237.69;2367546;28;44842;-77
2022/12/02 00:46:31;;;;;;;;;47.75;34.75;;;;;8.06;62.33;102230.69;2384298;28;45410;-77
2022/12/02 00:47:41;;;;;;;;;38.75;31.75;;;;;8.06;62.35;102232.41;2335193;28;1142872;-77
2022/12/02 00:48:52;;;;;;;;;41.50;35.25;;;;;8.07;62.24;102228.94;2377095;28;45473;-77
2022/12/02 00:50:02;;;;;;;;;48.50;34.00;;;;;8.07;62.70;102231.56;2373386;28;45198;-77
2022/12/02 00:51:13;;;;;;;;;37.75;33.50;;;;;8.09;62.33;102228.06;2369644;28;46577;-78
2022/12/02 00:52:23;;;;;;;;;44.50;32.50;;;;;8.10;62.56;102221.06;2385098;28;45225;-77
2022/12/02 00:53:33;;;;;;;;;43.50;37.25;;;;;8.13;62.65;102221.06;2384762;28;45251;-77
2022/12/02 00:54:44;;;;;;;;;43.75;34.75;;;;;8.15;63.00;102218.47;2384942;28;45355;-77
2022/12/02 00:55:54;;;;;;;;;42.25;33.00;;;;;8.17;62.46;102220.19;2384811;28;46273;-77
2022/12/02 00:57:05;;;;;;;;;46.00;34.00;;;;;8.19;62.67;102217.59;2376521;28;44658;-77
2022/12/02 00:58:16;;;;;;;;;42.00;34.00;;;;;8.19;62.43;102221.09;2377092;28;48278;-78
2022/12/02 00:59:26;;;;;;;;;47.25;36.50;;;;;8.19;62.61;102214.97;2374155;28;44579;-77
2022/12/02 01:00:36;;;;;;;;;34.75;29.50;;;;;8.20;62.58;102214.09;2375483;28;45327;-77
2022/12/02 01:01:47;;;;;;;;;26.75;25.00;;;;;8.20;63.45;102212.34;2374754;28;44681;-77
2022/12/02 01:02:57;;;;;;;;;44.00;33.00;;;;;8.21;62.46;102214.13;2377620;28;45437;-77
2022/12/02 01:04:07;;;;;;;;;42.25;33.75;;;;;8.21;62.18;102214.13;2385048;28;44636;-77
2022/12/02 01:05:18;;;;;;;;;46.25;34.25;;;;;8.21;62.48;102213.22;2384743;28;45275;-77
2022/12/02 01:06:28;;;;;;;;;43.25;35.25;;;;;8.21;62.40;102218.47;2374926;28;45470;-78
2022/12/02 01:07:39;;;;;;;;;50.50;37.75;;;;;8.21;62.45;102210.63;2374705;28;47173;-78
2022/12/02 01:08:49;;;;;;;;;47.25;34.00;;;;;8.25;62.39;102219.38;2377239;28;45506;-78
2022/12/02 01:09:59;;;;;;;;;44.50;35.00;;;;;8.22;62.71;102215.00;2384011;28;46291;-78
2022/12/02 01:11:10;;;;;;;;;44.00;33.75;;;;;8.23;62.41;102216.72;2374900;28;45323;-77
2022/12/02 01:12:20;;;;;;;;;46.50;34.25;;;;;8.23;62.92;102227.19;2377142;28;45606;-77
2022/12/02 01:13:31;;;;;;;;;44.75;37.25;;;;;8.22;62.32;102212.38;2384826;28;45347;-77
2022/12/02 01:14:41;;;;;;;;;43.50;34.25;;;;;8.22;62.83;102210.59;2384631;28;45339;-77
2022/12/02 01:15:51;;;;;;;;;50.50;35.00;;;;;8.22;62.47;102210.59;2384888;28;45321;-77
2022/12/02 01:17:02;;;;;;;;;39.50;31.25;;;;;8.22;62.36;102215.00;2384421;28;45367;-77
2022/12/02 01:18:12;;;;;;;;;42.50;35.00;;;;;8.23;62.81;102211.47;2384338;28;45270;-77
2022/12/02 01:19:22;;;;;;;;;42.75;33.75;;;;;8.23;62.49;102203.63;2384789;28;45427;-77
2022/12/02 01:20:33;;;;;;;;;42.00;32.75;;;;;8.25;62.32;102212.34;2383997;28;45491;-77
2022/12/02 01:21:43;;;;;;;;;36.25;29.25;;;;;8.26;62.44;102211.50;2384608;28;45538;-77
2022/12/02 01:22:53;;;;;;;;;41.00;32.75;;;;;8.27;62.57;102205.38;2384725;28;44586;-77
2022/12/02 01:24:04;;;;;;;;;49.25;34.25;;;;;8.30;62.74;102208.00;2384704;28;46311;-77
2022/12/02 01:25:14;;;;;;;;;47.75;33.75;;;;;8.31;62.69;102204.53;2384723;28;45293;-77
2022/12/02 01:26:25;;;;;;;;;38.25;32.25;;;;;8.35;63.02;102205.38;2384591;28;46476;-77
2022/12/02 01:27:35;;;;;;;;;48.00;36.25;;;;;8.34;62.84;102203.66;2383670;28;45200;-77
2022/12/02 01:28:45;;;;;;;;;41.50;30.00;;;;;8.37;62.56;102210.63;2381254;28;46336;-77
2022/12/02 01:29:56;;;;;;;;;47.00;35.25;;;;;8.36;62.12;102201.00;2378578;28;45238;-77
2022/12/02 01:31:06;;;;;;;;;53.00;36.50;;;;;8.33;62.49;102197.53;2384580;28;45200;-77
2022/12/02 01:32:18;;;;;;;;;43.00;34.25;;;;;8.36;62.13;102199.28;2384689;28;45192;-77
2022/12/02 01:33:28;;;;;;;;;49.00;34.25;;;;;8.33;62.20;102197.53;2384421;28;45294;-77
2022/12/02 01:34:40;;;;;;;;;43.00;37.50;;;;;8.33;62.56;102199.25;2384727;28;45520;-77
2022/12/02 01:35:50;;;;;;;;;50.00;38.00;;;;;8.33;62.31;102199.25;2384565;28;46224;-77
2022/12/02 01:37:01;;;;;;;;;38.75;34.00;;;;;8.30;62.15;102197.50;2384650;28;44633;-77
2022/12/02 01:38:11;;;;;;;;;48.50;34.25;;;;;8.30;62.31;102194.00;2374267;28;47256;-78
2022/12/02 01:39:21;;;;;;;;;45.00;35.25;;;;;8.31;62.31;102204.53;2377393;28;44764;-78
2022/12/02 01:40:32;;;;;;;;;47.50;35.25;;;;;8.30;62.50;102202.75;2375588;28;45385;-77
2022/12/02 01:41:42;;;;;;;;;46.50;34.25;;;;;8.30;62.42;102201.88;2382664;28;45224;-77
2022/12/02 01:42:53;;;;;;;;;40.25;34.75;;;;;8.29;62.56;102200.16;2384431;28;46446;-77
2022/12/02 01:44:03;;;;;;;;;46.00;32.25;;;;;8.28;62.41;102201.88;2374565;28;45356;-77
2022/12/02 01:45:15;;;;;;;;;46.00;34.75;;;;;8.25;62.70;102196.63;2377420;28;45393;-77
2022/12/02 01:46:25;;;;;;;;;49.75;37.00;;;;;8.25;62.67;102201.03;2384622;28;44687;-77
2022/12/02 01:47:36;;;;;;;;;46.00;35.00;;;;;8.24;62.50;102202.78;2373751;28;47025;-77
2022/12/02 01:48:48;;;;;;;;;44.25;34.75;;;;;8.24;62.31;102201.88;2375984;28;45205;-77
2022/12/02 01:49:59;;;;;;;;;47.25;37.00;;;;;8.20;62.45;102206.22;2379496;28;45608;-77
2022/12/02 01:51:09;;;;;;;;;47.00;35.00;;;;;8.19;62.48;102210.63;2375632;28;45172;-77
2022/12/02 01:52:20;;;;;;;;;49.75;34.75;;;;;8.19;63.03;102212.38;2374351;28;48193;-77
2022/12/02 01:53:31;;;;;;;;;51.50;37.50;;;;;8.17;62.54;102212.34;2377373;28;44733;-77
2022/12/02 01:54:41;;;;;;;;;49.75;37.25;;;;;8.16;62.48;102204.50;2384259;28;46576;-77
2022/12/02 01:55:52;;;;;;;;;46.50;35.25;;;;;8.16;62.71;102209.72;2384451;28;45326;-77
2022/12/02 01:57:05;;;;;;;;;54.50;38.00;;;;;8.16;62.61;102214.97;2384116;28;46445;-77
2022/12/02 01:58:22;;;;;;;;;32.50;28.50;;;;;8.16;62.99;102215.84;2384093;28;45141;-77
2022/12/02 01:59:32;;;;;;;;;48.75;36.50;;;;;8.17;63.13;102221.97;2383548;28;45401;-77
2022/12/02 02:00:42;;;;;;;;;43.75;35.75;;;;;8.17;62.89;102211.50;2384075;28;45290;-77
2022/12/02 02:01:53;;;;;;;;;46.75;35.50;;;;;8.16;62.57;102213.22;2374086;28;47952;-78
2022/12/02 02:03:03;;;;;;;;;46.50;35.00;;;;;8.15;63.00;102218.47;2377152;28;44636;-78
2022/12/02 02:04:14;;;;;;;;;45.75;35.25;;;;;8.12;63.40;102213.22;2384364;28;45289;-77
2022/12/02 02:05:29;;;;;;;;;42.50;33.25;;;;;8.12;62.66;102215.84;2384570;28;45228;-77
2022/12/02 02:06:45;;;;;;;;;49.00;36.00;;;;;8.13;63.06;102217.59;2384328;28;45824;-77
2022/12/02 02:07:58;;;;;;;;;51.00;39.50;;;;;8.12;63.17;102224.59;2373945;28;45291;-77
2022/12/02 02:09:09;;;;;;;;;49.25;39.25;;;;;8.13;63.07;102215.84;2377159;28;48119;-77
2022/12/02 02:10:21;;;;;;;;;47.00;36.75;;;;;8.14;63.25;102217.59;2383533;28;45275;-77
2022/12/02 02:11:31;;;;;;;;;45.75;34.00;;;;;8.14;62.95;102212.38;2384098;28;45780;-77
2022/12/02 02:12:44;;;;;;;;;45.75;35.50;;;;;8.16;63.11;102209.72;2374420;28;44716;-77
2022/12/02 02:13:55;;;;;;;;;44.75;36.25;;;;;8.15;62.77;102213.25;2377452;28;45296;-77
2022/12/02 02:15:08;;;;;;;;;48.25;35.00;;;;;8.16;62.98;102217.59;2374268;28;45331;-77
2022/12/02 02:16:19;;;;;;;;;51.50;37.00;;;;;8.16;63.29;102217.59;2376850;28;46967;-77
2022/12/02 02:17:29;;;;;;;;;45.50;32.75;;;;;8.17;62.81;102221.97;2374311;28;45274;-77
2022/12/02 02:18:40;;;;;;;;;44.25;33.75;;;;;8.18;63.00;102226.31;2376095;28;45562;-77
2022/12/02 02:19:51;;;;;;;;;51.00;35.25;;;;;8.17;62.95;102216.72;2384014;28;45209;-77
2022/12/02 02:21:01;;;;;;;;;49.25;38.50;;;;;8.14;62.91;102217.59;2384202;28;45397;-77
2022/12/02 02:22:17;;;;;;;;;49.75;36.50;;;;;8.15;62.95;102210.63;2383248;28;45358;-78
2022/12/02 02:23:28;;;;;;;;;45.00;35.75;;;;;8.14;63.34;102201.00;2373672;28;46817;-77
2022/12/02 02:24:38;;;;;;;;;48.50;35.50;;;;;8.14;63.20;102201.00;2374571;28;45256;-77
2022/12/02 02:25:52;;;;;;;;;36.75;34.00;;;;;8.13;63.20;102194.88;2375094;28;46331;-77
2022/12/02 02:27:03;;;;;;;;;50.25;34.25;;;;;8.15;63.55;102192.28;2384201;28;45323;-77
2022/12/02 02:28:14;;;;;;;;;41.00;33.50;;;;;8.16;63.51;102189.66;2382022;28;47076;-77
2022/12/02 02:29:24;;;;;;;;;42.00;34.75;;;;;8.17;63.20;102190.53;2383518;28;44817;-77
2022/12/02 02:30:35;;;;;;;;;50.50;37.75;;;;;8.18;62.85;102197.50;2383233;28;45268;-77
2022/12/02 02:31:46;;;;;;;;;49.75;37.50;;;;;8.16;62.69;102194.03;2384270;28;45299;-77
2022/12/02 02:32:58;;;;;;;;;50.00;35.50;;;;;8.14;62.71;102186.19;2384120;28;45405;-77
2022/12/02 02:34:09;;;;;;;;;51.50;38.25;;;;;8.15;62.96;102192.28;2383858;28;45353;-77
2022/12/02 02:35:20;;;;;;;;;49.75;37.50;;;;;8.15;63.15;102193.13;2383915;28;45382;-77
2022/12/02 02:36:30;;;;;;;;;48.50;37.75;;;;;8.15;63.40;102192.28;2384123;28;45293;-77
2022/12/02 02:37:42;;;;;;;;;45.25;35.50;;;;;8.15;62.94;102190.53;2384077;28;46453;-78
2022/12/02 02:38:52;;;;;;;;;46.00;35.00;;;;;8.15;63.15;102187.06;2377076;28;45299;-78
2022/12/02 02:40:04;;;;;;;;;50.50;39.00;;;;;8.15;63.02;102187.91;2380093;28;45828;-77
2022/12/02 02:41:14;;;;;;;;;48.25;35.00;;;;;8.16;62.62;102188.78;2384145;28;45235;-77
2022/12/02 02:42:25;;;;;;;;;50.75;36.75;;;;;8.16;63.19;102188.78;2383988;28;46385;-78
2022/12/02 02:43:37;;;;;;;;;39.25;32.50;;;;;8.15;62.96;102187.06;2384203;28;44573;-77
2022/12/02 02:44:48;;;;;;;;;49.25;36.25;;;;;8.14;63.27;102180.94;2384086;28;46096;-77
2022/12/02 02:45:59;;;;;;;;;49.00;37.75;;;;;8.16;62.86;102184.44;2384305;28;45253;-77
2022/12/02 02:47:10;;;;;;;;;42.50;36.25;;;;;8.15;63.24;102177.44;2373786;28;47314;-77
2022/12/02 02:48:21;;;;;;;;;40.75;34.25;;;;;8.16;63.38;102181.81;2375748;28;44842;-77
2022/12/02 02:49:32;;;;;;;;;48.25;37.50;;;;;8.15;63.10;102176.56;2384064;28;45532;-77
2022/12/02 02:50:44;;;;;;;;;50.50;38.00;;;;;8.15;63.35;102166.09;2383799;28;44721;-77
2022/12/02 02:51:55;;;;;;;;;50.75;36.00;;;;;8.13;63.05;102173.94;2383995;28;46387;-77
2022/12/02 02:53:05;;;;;;;;;50.75;37.75;;;;;8.13;62.95;102173.06;2374047;28;45307;-77
2022/12/02 02:54:16;;;;;;;;;42.25;34.50;;;;;8.15;63.04;102177.44;2377058;28;45313;-77
2022/12/02 02:55:27;;;;;;;;;49.75;32.75;;;;;8.15;62.93;102176.56;2375977;28;45513;-78
2022/12/02 02:56:37;;;;;;;;;44.00;35.25;;;;;8.18;63.16;102171.31;2376623;28;46396;-78
2022/12/02 02:57:48;;;;;;;;;39.50;33.00;;;;;8.18;63.21;102177.44;2384127;28;45248;-78
2022/12/02 02:58:58;;;;;;;;;28.75;25.75;;;;;8.20;63.18;102174.81;2384105;28;45474;-77
2022/12/02 03:00:10;;;;;;;;;48.00;36.50;;;;;8.21;63.03;102171.31;2373658;28;45220;-77
2022/12/02 03:01:30;;;;;;;;;45.75;33.75;;;;;8.21;62.67;102174.81;2376867;28;46727;-77
2022/12/02 03:02:42;;;;;;;;;46.25;35.00;;;;;8.22;62.56;102171.31;2374107;28;44760;-77
2022/12/02 03:03:59;;;;;;;;;52.75;38.50;;;;;8.21;62.72;102172.22;2376922;28;45476;-77
2022/12/02 03:05:09;;;;;;;;;49.00;36.50;;;;;8.22;62.39;102173.94;2383507;28;45394;-77
2022/12/02 03:06:22;;;;;;;;;50.75;37.25;;;;;8.25;62.67;102169.59;2373554;28;48442;-77
2022/12/02 03:07:33;;;;;;;;;47.75;35.75;;;;;8.24;62.99;102163.47;2377332;28;45334;-77
2022/12/02 03:08:47;;;;;;;;;47.75;37.00;;;;;8.24;63.11;102166.09;2382939;28;46379;-77
2022/12/02 03:09:57;;;;;;;;;54.25;37.50;;;;;8.23;62.93;102153.84;2384121;28;45161;-77
2022/12/02 03:11:08;;;;;;;;;50.75;36.25;;;;;8.24;62.71;102166.09;2383976;28;46471;-77
2022/12/02 03:12:19;;;;;;;;;46.50;36.50;;;;;8.24;62.68;102154.75;2383524;28;45458;-78
2022/12/02 03:13:32;;;;;;;;;49.25;35.25;;;;;8.24;62.53;102163.47;2373737;28;47372;-77
2022/12/02 03:14:43;;;;;;;;;51.25;36.00;;;;;8.22;62.72;102157.38;2377254;28;44792;-78
2022/12/02 03:15:54;;;;;;;;;38.75;31.75;;;;;8.21;62.82;102161.72;2377862;28;45397;-78
2022/12/02 03:17:05;;;;;;;;;49.50;36.75;;;;;8.20;62.28;102154.72;2372142;28;44666;-77
2022/12/02 03:18:16;;;;;;;;;50.50;36.50;;;;;8.22;62.80;102157.38;2366772;28;47224;-77
2022/12/02 03:19:28;;;;;;;;;49.00;35.00;;;;;8.26;62.91;102158.22;2377019;28;44538;-77
2022/12/02 03:20:39;;;;;;;;;52.00;39.00;;;;;8.28;63.34;102154.72;2383753;28;46104;-77
2022/12/02 03:21:49;;;;;;;;;50.75;38.00;;;;;8.29;62.85;102147.75;2383969;28;45173;-77
2022/12/02 03:23:00;;;;;;;;;45.50;35.75;;;;;8.30;62.93;102150.34;2383731;28;45442;-77
2022/12/02 03:24:11;;;;;;;;;50.75;38.00;;;;;8.30;62.51;102152.97;2384090;28;44692;-77
2022/12/02 03:25:21;;;;;;;;;51.75;38.00;;;;;8.31;62.85;102157.38;2373082;28;48165;-78
2022/12/02 03:26:33;;;;;;;;;46.75;36.50;;;;;8.32;62.67;102156.47;2376504;28;45407;-78
2022/12/02 03:27:44;;;;;;;;;42.75;34.00;;;;;8.33;62.31;102155.59;2383947;28;46472;-78
2022/12/02 03:28:55;;;;;;;;;55.00;37.00;;;;;8.33;62.75;102154.72;2383458;28;45249;-78
2022/12/02 03:30:06;;;;;;;;;42.00;36.00;;;;;8.30;62.30;102145.13;2383251;28;45452;-77
2022/12/02 03:31:17;;;;;;;;;51.75;36.75;;;;;8.32;62.84;102151.22;2373885;28;45294;-77
2022/12/02 03:32:27;;;;;;;;;45.50;35.75;;;;;8.31;62.17;102148.63;2376538;28;46066;-77
2022/12/02 03:33:39;;;;;;;;;47.75;37.00;;;;;8.31;62.83;102153.84;2383908;28;44696;-77
2022/12/02 03:34:49;;;;;;;;;52.50;38.50;;;;;8.31;62.98;102139.03;2383701;28;45405;-77
2022/12/02 03:36:00;;;;;;;;;47.75;37.75;;;;;8.35;62.55;102146.84;2377411;28;45178;-77
2022/12/02 03:37:11;;;;;;;;;49.00;39.75;;;;;8.35;62.21;102141.63;2372060;28;47285;-77
2022/12/02 03:38:21;;;;;;;;;56.25;40.00;;;;;8.35;62.29;102154.72;2376244;28;45324;-77
2022/12/02 03:39:31;;;;;;;;;46.00;32.25;;;;;8.35;62.67;102149.47;2383787;28;46732;-77
2022/12/02 03:40:42;;;;;;;;;52.25;39.50;;;;;8.32;62.22;102146.00;2383759;28;45291;-77
2022/12/02 03:41:53;;;;;;;;;56.75;40.75;;;;;8.32;62.32;102146.00;2383523;28;46592;-77
2022/12/02 03:43:03;;;;;;;;;51.25;38.00;;;;;8.31;62.41;102143.38;2373488;28;45414;-77
2022/12/02 03:44:14;;;;;;;;;49.25;39.75;;;;;8.27;62.21;102137.25;2376492;28;45283;-77
2022/12/02 03:45:25;;;;;;;;;49.75;39.00;;;;;8.27;62.56;102141.66;2382750;28;45227;-77
2022/12/02 03:46:35;;;;;;;;;50.50;36.75;;;;;8.26;62.36;102137.28;2384096;28;46242;-77
2022/12/02 03:47:46;;;;;;;;;49.50;37.75;;;;;8.25;62.26;102146.88;2385173;28;45873;-77
2022/12/02 03:48:58;;;;;;;;;51.50;40.25;;;;;8.25;62.68;102138.16;2374828;28;47388;-77
2022/12/02 03:50:10;;;;;;;;;55.50;41.00;;;;;8.26;62.38;102146.00;2366432;28;45556;-77
2022/12/02 03:51:20;;;;;;;;;43.75;37.00;;;;;8.26;62.24;102143.38;2378233;28;46434;-77
2022/12/02 03:52:30;;;;;;;;;53.25;38.00;;;;;8.28;62.62;102146.88;2385343;28;45324;-77
2022/12/02 03:53:42;;;;;;;;;52.25;40.25;;;;;8.29;62.61;102145.13;2385170;28;46653;-77
2022/12/02 03:54:53;;;;;;;;;55.25;39.50;;;;;8.27;62.27;102137.25;2385314;28;45165;-77
2022/12/02 03:56:05;;;;;;;;;53.50;39.75;;;;;8.28;62.75;102139.00;2385214;28;45386;-78
2022/12/02 03:57:16;;;;;;;;;47.00;38.25;;;;;8.30;62.11;102144.25;2385055;28;45243;-78
2022/12/02 03:58:36;;;;;;;;;49.75;37.50;;;;;8.29;62.22;102143.41;2384818;28;45493;-77
2022/12/02 03:59:46;;;;;;;;;53.25;39.50;;;;;8.27;62.75;102137.25;2385445;28;45285;-77
2022/12/02 04:00:56;;;;;;;;;50.25;37.75;;;;;8.27;62.50;102137.25;2374468;28;45928;-77
2022/12/02 04:02:07;;;;;;;;;53.50;40.75;;;;;8.28;62.49;102130.28;2377996;28;45273;-77
2022/12/02 04:03:17;;;;;;;;;52.00;40.75;;;;;8.25;62.22;102127.69;2375140;28;47062;-77
2022/12/02 04:04:27;;;;;;;;;49.00;34.25;;;;;8.22;62.27;102126.78;2378214;28;45209;-77
2022/12/02 04:05:38;;;;;;;;;51.25;40.25;;;;;8.20;62.28;102133.78;2385088;28;45192;-77
2022/12/02 04:06:48;;;;;;;;;49.25;36.75;;;;;8.18;62.33;102119.81;2385282;28;45354;-77
2022/12/02 04:07:58;;;;;;;;;49.50;39.25;;;;;8.20;62.13;102130.28;2385182;28;45357;-77
2022/12/02 04:09:09;;;;;;;;;52.00;38.50;;;;;8.18;62.40;102129.41;2374879;28;45239;-77
2022/12/02 04:10:19;;;;;;;;;53.00;38.50;;;;;8.16;62.28;102121.56;2377971;28;45596;-77
2022/12/02 04:11:29;;;;;;;;;46.50;36.75;;;;;8.16;62.14;102125.91;2384276;28;45291;-78
2022/12/02 04:12:40;;;;;;;;;47.50;37.00;;;;;8.16;62.34;102124.19;2384974;28;46318;-77
2022/12/02 04:13:50;;;;;;;;;49.50;38.25;;;;;8.15;62.58;102124.19;2375168;28;45373;-77
2022/12/02 04:15:00;;;;;;;;;52.25;38.75;;;;;8.16;62.62;102128.53;2377940;28;45501;-77
2022/12/02 04:16:11;;;;;;;;;52.00;38.00;;;;;8.16;62.46;102124.19;2385294;28;45216;-77
2022/12/02 04:17:21;;;;;;;;;47.25;35.75;;;;;8.15;62.65;102121.56;2374825;28;47122;-77
2022/12/02 04:18:31;;;;;;;;;49.25;37.25;;;;;8.15;62.70;102116.34;2377382;28;45284;-77
2022/12/02 04:19:42;;;;;;;;;39.00;30.25;;;;;8.16;62.38;102111.09;2372059;28;47593;-77
2022/12/02 04:20:52;;;;;;;;;47.75;36.50;;;;;8.16;62.02;102110.22;2376379;28;45472;-77
2022/12/02 04:22:02;;;;;;;;;49.50;38.00;;;;;8.16;62.69;102104.97;2374947;28;47121;-77
2022/12/02 04:23:13;;;;;;;;;49.00;37.00;;;;;8.16;62.73;102107.59;2367214;28;45329;-77
2022/12/02 04:24:23;;;;;;;;;51.25;38.75;;;;;8.17;62.13;102104.09;2368412;28;46979;-77
2022/12/02 04:25:34;;;;;;;;;50.50;35.75;;;;;8.18;62.50;102103.22;2377892;28;45368;-77
2022/12/02 04:26:44;;;;;;;;;45.75;37.25;;;;;8.18;62.73;102104.09;2384828;28;46278;-77
2022/12/02 04:27:55;;;;;;;;;48.25;35.50;;;;;8.21;62.05;102103.22;2385270;28;45144;-77
2022/12/02 04:29:05;;;;;;;;;48.25;36.50;;;;;8.22;62.82;102097.97;2384466;28;45303;-77
2022/12/02 04:30:15;;;;;;;;;51.00;39.00;;;;;8.24;62.71;102100.59;2385122;28;45249;-77
2022/12/02 04:31:26;;;;;;;;;41.75;34.50;;;;;8.24;62.10;102098.00;2383497;28;48279;-77
2022/12/02 04:32:36;;;;;;;;;46.50;34.25;;;;;8.23;62.36;102101.47;2384528;28;45276;-77
2022/12/02 04:33:46;;;;;;;;;42.00;31.25;;;;;8.23;62.49;102106.72;2384908;28;46308;-77
2022/12/02 04:34:56;;;;;;;;;48.50;38.25;;;;;8.23;62.94;102101.47;2385005;28;44617;-77
2022/12/02 04:36:07;;;;;;;;;49.00;38.25;;;;;8.24;62.28;102103.22;2375012;28;47191;-77
2022/12/02 04:37:17;;;;;;;;;46.00;36.75;;;;;8.27;63.12;102103.19;2377829;28;44649;-77
2022/12/02 04:38:28;;;;;;;;;46.50;37.50;;;;;8.30;62.62;102097.09;2384511;28;45509;-77
2022/12/02 04:39:38;;;;;;;;;48.25;34.75;;;;;8.31;62.68;102102.34;2385214;28;45458;-77
2022/12/02 04:40:48;;;;;;;;;43.50;31.50;;;;;8.32;62.32;102100.59;2374104;28;46084;-77
2022/12/02 04:41:59;;;;;;;;;40.75;35.00;;;;;8.32;62.44;102101.44;2377672;28;44836;-77
2022/12/02 04:43:09;;;;;;;;;46.25;34.50;;;;;8.33;62.10;102103.22;2384474;28;45353;-77
2022/12/02 04:44:19;;;;;;;;;51.00;39.00;;;;;8.35;62.42;102104.94;2385149;28;44764;-77
2022/12/02 04:45:30;;;;;;;;;56.00;40.75;;;;;8.35;61.94;102107.56;2384773;28;45486;-78
2022/12/02 04:46:40;;;;;;;;;50.25;37.00;;;;;8.35;62.29;102107.56;2384861;28;45240;-78
2022/12/02 04:47:50;;;;;;;;;55.50;41.50;;;;;8.37;62.54;102103.22;2374692;28;47300;-77
2022/12/02 04:49:00;;;;;;;;;41.75;37.25;;;;;8.37;62.00;102104.06;2377502;28;45458;-77
2022/12/02 04:50:11;;;;;;;;;52.25;38.25;;;;;8.39;61.76;102109.31;2384617;28;46374;-77
2022/12/02 04:51:22;;;;;;;;;49.50;37.00;;;;;8.38;62.59;102102.31;2384186;28;44683;-77
2022/12/02 04:52:32;;;;;;;;;50.75;39.25;;;;;8.39;62.41;102097.09;2383898;28;45450;-78
2022/12/02 04:53:42;;;;;;;;;51.25;37.00;;;;;8.39;62.15;102096.22;2384102;28;45243;-78
2022/12/02 04:54:53;;;;;;;;;49.25;37.00;;;;;8.39;62.10;102091.84;2384089;28;46263;-78
2022/12/02 04:56:03;;;;;;;;;49.25;37.00;;;;;8.39;61.67;102094.47;2385174;28;44682;-78
2022/12/02 04:57:14;;;;;;;;;51.25;38.25;;;;;8.38;62.13;102090.09;2384010;28;46766;-78
2022/12/02 04:58:24;;;;;;;;;54.00;39.50;;;;;8.38;61.83;102092.72;2384462;28;45280;-78
2022/12/02 04:59:34;;;;;;;;;45.50;35.50;;;;;8.37;61.98;102090.97;2383582;28;45431;-78
2022/12/02 05:00:45;;;;;;;;;54.75;40.75;;;;;8.37;61.50;102090.13;2384157;28;45289;-78
2022/12/02 05:01:55;;;;;;;;;51.25;38.00;;;;;8.35;61.78;102090.09;2384692;28;45218;-77
2022/12/02 05:03:06;;;;;;;;;41.50;35.00;;;;;8.34;61.71;102098.84;2384854;28;45481;-77
2022/12/02 05:04:16;;;;;;;;;52.00;40.50;;;;;8.32;62.21;102097.97;2374586;28;46923;-77
2022/12/02 05:05:26;;;;;;;;;43.00;36.00;;;;;8.31;61.96;102089.25;2368241;28;45242;-77
2022/12/02 05:06:36;;;;;;;;;57.50;41.00;;;;;8.33;61.96;102089.22;2377593;28;45485;-77
2022/12/02 05:07:47;;;;;;;;;45.25;34.00;;;;;8.33;62.45;102095.34;2381271;28;45193;-77
2022/12/02 05:08:57;;;;;;;;;50.25;36.50;;;;;8.35;62.06;102095.34;2381040;28;46224;-77
2022/12/02 05:10:08;;;;;;;;;48.75;34.75;;;;;8.35;62.22;102089.22;2384935;28;44582;-77
2022/12/02 05:11:18;;;;;;;;;54.00;39.75;;;;;8.34;62.15;102088.38;2384672;28;45359;-77
2022/12/02 05:12:29;;;;;;;;;47.00;36.75;;;;;8.33;61.76;102087.50;2374251;28;44827;-78
2022/12/02 05:13:39;;;;;;;;;51.50;37.25;;;;;8.34;62.07;102083.13;2377412;28;45452;-77
2022/12/02 05:14:50;;;;;;;;;51.75;39.25;;;;;8.31;62.31;102086.63;2384739;28;45439;-77
2022/12/02 05:16:01;;;;;;;;;51.25;37.00;;;;;8.31;62.25;102088.38;2384668;28;45426;-77
2022/12/02 05:17:11;;;;;;;;;50.00;37.50;;;;;8.30;62.42;102087.50;2374664;28;45378;-77
2022/12/02 05:18:21;;;;;;;;;51.00;37.00;;;;;8.30;62.02;102090.09;2376491;28;45361;-77
2022/12/02 05:19:32;;;;;;;;;47.00;36.50;;;;;8.31;62.04;102089.25;2385017;28;45262;-77
2022/12/02 05:20:42;;;;;;;;;48.75;35.25;;;;;8.32;62.11;102088.34;2384547;28;46312;-77
2022/12/02 05:21:53;;;;;;;;;47.25;35.00;;;;;8.35;62.31;102081.34;2384764;28;45277;-77
2022/12/02 05:23:03;;;;;;;;;53.00;40.75;;;;;8.36;62.50;102085.72;2374520;28;46856;-77
2022/12/02 05:24:13;;;;;;;;;52.25;40.25;;;;;8.36;61.89;102081.38;2377521;28;45343;-77
2022/12/02 05:25:23;;;;;;;;;53.50;36.75;;;;;8.37;62.05;102077.84;2374535;28;47804;-77
2022/12/02 05:26:34;;;;;;;;;48.75;38.00;;;;;8.39;62.29;102072.63;2377388;28;44675;-77
2022/12/02 05:27:44;;;;;;;;;54.50;38.00;;;;;8.39;61.83;102077.88;2384735;28;45177;-77
2022/12/02 05:28:55;;;;;;;;;46.00;35.00;;;;;8.40;62.40;102075.25;2379312;28;45219;-77